sensor_id;sensor_type;location;lat;lon;timestamp;P1;durP1;ratioP1;P2;durP2;ratioP2
81170;SDS011;70644;44.818;20.478;2023-09-30T00:01:02;13.85;;;12.45;;
81170;SDS011;70644;44.818;20.478;2023-09-30T00:03:28;14.57;;;12.73;;
81170;SDS011;70644;44.818;20.478;2023-09-30T00:05:54;13.88;;;12.48;;
81170;SDS011;70644;44.818;20.478;2023-09-30T00:08:20;14.00;;;12.55;;
81170;SDS011;70644;44.818;20.478;2023-09-30T00:10:46;14.48;;;12.80;;
81170;SDS011;70644;44.818;20.478;2023-09-30T00:13:13;13.43;;;11.80;;
81170;SDS011;70644;44.818;20.478;2023-09-30T00:15:39;14.48;;;13.00;;
81170;SDS011;70644;44.818;20.478;2023-09-30T00:18:06;13.30;;;11.95;;
81170;SDS011;70644;44.818;20.478;2023-09-30T00:20:32;13.93;;;12.63;;
81170;SDS011;70644;44.818;20.478;2023-09-30T00:22:58;13.20;;;11.90;;
81170;SDS011;70644;44.818;20.478;2023-09-30T00:25:25;12.65;;;11.35;;
81170;SDS011;70644;44.818;20.478;2023-09-30T00:27:52;15.40;;;12.40;;
81170;SDS011;70644;44.818;20.478;2023-09-30T00:30:19;13.10;;;11.77;;
81170;SDS011;70644;44.818;20.478;2023-09-30T00:32:46;12.60;;;11.27;;
81170;SDS011;70644;44.818;20.478;2023-09-30T00:35:12;11.00;;;9.90;;
81170;SDS011;70644;44.818;20.478;2023-09-30T00:37:39;12.32;;;11.00;;
81170;SDS011;70644;44.818;20.478;2023-09-30T00:40:06;13.20;;;11.88;;
81170;SDS011;70644;44.818;20.478;2023-09-30T00:42:37;12.23;;;10.48;;
81170;SDS011;70644;44.818;20.478;2023-09-30T00:45:03;12.90;;;11.77;;
81170;SDS011;70644;44.818;20.478;2023-09-30T00:47:30;13.32;;;12.00;;
81170;SDS011;70644;44.818;20.478;2023-09-30T00:49:56;12.52;;;11.30;;
81170;SDS011;70644;44.818;20.478;2023-09-30T00:52:22;11.65;;;10.32;;
81170;SDS011;70644;44.818;20.478;2023-09-30T00:54:49;12.70;;;11.40;;
81170;SDS011;70644;44.818;20.478;2023-09-30T00:57:16;13.00;;;11.63;;
81170;SDS011;70644;44.818;20.478;2023-09-30T00:59:43;12.07;;;10.88;;
81170;SDS011;70644;44.818;20.478;2023-09-30T01:02:10;12.43;;;11.13;;
81170;SDS011;70644;44.818;20.478;2023-09-30T01:04:36;12.50;;;11.18;;
81170;SDS011;70644;44.818;20.478;2023-09-30T01:07:03;11.32;;;10.13;;
81170;SDS011;70644;44.818;20.478;2023-09-30T01:09:30;13.15;;;11.85;;
81170;SDS011;70644;44.818;20.478;2023-09-30T01:11:56;11.27;;;10.05;;
81170;SDS011;70644;44.818;20.478;2023-09-30T01:14:28;13.32;;;11.43;;
81170;SDS011;70644;44.818;20.478;2023-09-30T01:16:54;12.13;;;10.85;;
81170;SDS011;70644;44.818;20.478;2023-09-30T01:19:21;12.82;;;10.30;;
81170;SDS011;70644;44.818;20.478;2023-09-30T01:21:49;12.80;;;10.65;;
81170;SDS011;70644;44.818;20.478;2023-09-30T01:24:15;12.57;;;10.88;;
81170;SDS011;70644;44.818;20.478;2023-09-30T01:26:41;11.07;;;9.88;;
81170;SDS011;70644;44.818;20.478;2023-09-30T01:29:07;11.80;;;10.70;;
81170;SDS011;70644;44.818;20.478;2023-09-30T01:31:36;10.90;;;9.80;;
81170;SDS011;70644;44.818;20.478;2023-09-30T01:34:02;11.05;;;9.95;;
81170;SDS011;70644;44.818;20.478;2023-09-30T01:36:28;11.80;;;10.60;;
81170;SDS011;70644;44.818;20.478;2023-09-30T01:38:54;15.07;;;10.10;;
81170;SDS011;70644;44.818;20.478;2023-09-30T01:41:21;11.75;;;10.55;;
81170;SDS011;70644;44.818;20.478;2023-09-30T01:43:47;12.55;;;11.35;;
81170;SDS011;70644;44.818;20.478;2023-09-30T01:46:13;11.65;;;10.45;;
81170;SDS011;70644;44.818;20.478;2023-09-30T01:48:39;14.35;;;11.23;;
81170;SDS011;70644;44.818;20.478;2023-09-30T01:51:06;11.25;;;10.15;;
81170;SDS011;70644;44.818;20.478;2023-09-30T01:53:32;10.77;;;9.73;;
81170;SDS011;70644;44.818;20.478;2023-09-30T01:55:59;10.98;;;9.88;;
81170;SDS011;70644;44.818;20.478;2023-09-30T01:58:25;10.82;;;9.52;;
81170;SDS011;70644;44.818;20.478;2023-09-30T02:00:52;10.73;;;9.63;;
81170;SDS011;70644;44.818;20.478;2023-09-30T02:03:18;11.80;;;10.60;;
81170;SDS011;70644;44.818;20.478;2023-09-30T02:05:44;12.80;;;10.10;;
81170;SDS011;70644;44.818;20.478;2023-09-30T02:08:10;11.20;;;9.88;;
81170;SDS011;70644;44.818;20.478;2023-09-30T02:10:36;11.35;;;10.27;;
81170;SDS011;70644;44.818;20.478;2023-09-30T02:13:02;10.20;;;9.10;;
81170;SDS011;70644;44.818;20.478;2023-09-30T02:15:31;11.60;;;10.40;;
81170;SDS011;70644;44.818;20.478;2023-09-30T02:17:58;11.13;;;9.88;;
81170;SDS011;70644;44.818;20.478;2023-09-30T02:20:25;9.48;;;8.43;;
81170;SDS011;70644;44.818;20.478;2023-09-30T02:22:55;11.25;;;10.13;;
81170;SDS011;70644;44.818;20.478;2023-09-30T02:25:21;10.73;;;9.32;;
81170;SDS011;70644;44.818;20.478;2023-09-30T02:27:49;11.30;;;10.10;;
81170;SDS011;70644;44.818;20.478;2023-09-30T02:30:15;10.88;;;9.85;;
81170;SDS011;70644;44.818;20.478;2023-09-30T02:32:42;10.07;;;9.02;;
81170;SDS011;70644;44.818;20.478;2023-09-30T02:35:11;10.35;;;9.25;;
81170;SDS011;70644;44.818;20.478;2023-09-30T02:37:37;9.80;;;8.52;;
81170;SDS011;70644;44.818;20.478;2023-09-30T02:40:04;10.23;;;8.98;;
81170;SDS011;70644;44.818;20.478;2023-09-30T02:42:31;11.45;;;10.25;;
81170;SDS011;70644;44.818;20.478;2023-09-30T02:45:00;11.70;;;10.60;;
81170;SDS011;70644;44.818;20.478;2023-09-30T02:47:26;9.82;;;8.82;;
81170;SDS011;70644;44.818;20.478;2023-09-30T02:49:52;12.13;;;9.93;;
81170;SDS011;70644;44.818;20.478;2023-09-30T02:52:18;10.60;;;9.60;;
81170;SDS011;70644;44.818;20.478;2023-09-30T02:54:44;10.50;;;9.50;;
81170;SDS011;70644;44.818;20.478;2023-09-30T02:57:11;11.18;;;10.07;;
81170;SDS011;70644;44.818;20.478;2023-09-30T02:59:37;10.60;;;9.50;;
81170;SDS011;70644;44.818;20.478;2023-09-30T03:02:03;11.05;;;9.23;;
81170;SDS011;70644;44.818;20.478;2023-09-30T03:04:29;10.20;;;8.93;;
81170;SDS011;70644;44.818;20.478;2023-09-30T03:06:55;10.77;;;9.68;;
81170;SDS011;70644;44.818;20.478;2023-09-30T03:09:22;11.45;;;9.32;;
81170;SDS011;70644;44.818;20.478;2023-09-30T03:11:49;10.80;;;9.40;;
81170;SDS011;70644;44.818;20.478;2023-09-30T03:14:15;10.90;;;9.80;;
81170;SDS011;70644;44.818;20.478;2023-09-30T03:16:41;10.93;;;9.55;;
81170;SDS011;70644;44.818;20.478;2023-09-30T03:19:09;9.25;;;8.35;;
81170;SDS011;70644;44.818;20.478;2023-09-30T03:21:36;10.20;;;9.20;;
81170;SDS011;70644;44.818;20.478;2023-09-30T03:24:03;10.93;;;9.38;;
81170;SDS011;70644;44.818;20.478;2023-09-30T03:26:30;10.93;;;8.60;;
81170;SDS011;70644;44.818;20.478;2023-09-30T03:28:56;10.73;;;8.73;;
81170;SDS011;70644;44.818;20.478;2023-09-30T03:31:22;10.70;;;9.60;;
81170;SDS011;70644;44.818;20.478;2023-09-30T03:33:49;10.32;;;9.20;;
81170;SDS011;70644;44.818;20.478;2023-09-30T03:36:19;9.30;;;8.38;;
81170;SDS011;70644;44.818;20.478;2023-09-30T03:38:45;10.93;;;9.82;;
81170;SDS011;70644;44.818;20.478;2023-09-30T03:41:11;9.73;;;8.73;;
81170;SDS011;70644;44.818;20.478;2023-09-30T03:43:38;10.23;;;9.23;;
81170;SDS011;70644;44.818;20.478;2023-09-30T03:46:08;10.68;;;9.57;;
81170;SDS011;70644;44.818;20.478;2023-09-30T03:48:34;10.00;;;9.10;;
81170;SDS011;70644;44.818;20.478;2023-09-30T03:51:10;10.45;;;8.25;;
81170;SDS011;70644;44.818;20.478;2023-09-30T03:53:43;10.05;;;9.05;;
81170;SDS011;70644;44.818;20.478;2023-09-30T03:56:10;10.30;;;9.25;;
81170;SDS011;70644;44.818;20.478;2023-09-30T03:58:39;11.15;;;9.80;;
81170;SDS011;70644;44.818;20.478;2023-09-30T04:01:06;10.13;;;9.13;;
81170;SDS011;70644;44.818;20.478;2023-09-30T04:03:33;10.55;;;9.48;;
81170;SDS011;70644;44.818;20.478;2023-09-30T04:06:00;9.85;;;8.32;;
81170;SDS011;70644;44.818;20.478;2023-09-30T04:08:30;11.43;;;8.43;;
81170;SDS011;70644;44.818;20.478;2023-09-30T04:11:01;10.07;;;9.05;;
81170;SDS011;70644;44.818;20.478;2023-09-30T04:13:30;9.20;;;8.30;;
81170;SDS011;70644;44.818;20.478;2023-09-30T04:15:56;9.50;;;8.55;;
81170;SDS011;70644;44.818;20.478;2023-09-30T04:18:25;9.65;;;8.27;;
81170;SDS011;70644;44.818;20.478;2023-09-30T04:20:52;9.43;;;8.18;;
81170;SDS011;70644;44.818;20.478;2023-09-30T04:23:18;9.48;;;8.45;;
81170;SDS011;70644;44.818;20.478;2023-09-30T04:25:45;10.15;;;8.68;;
81170;SDS011;70644;44.818;20.478;2023-09-30T04:28:11;8.90;;;8.00;;
81170;SDS011;70644;44.818;20.478;2023-09-30T04:30:39;10.27;;;8.90;;
81170;SDS011;70644;44.818;20.478;2023-09-30T04:33:06;9.65;;;8.75;;
81170;SDS011;70644;44.818;20.478;2023-09-30T04:35:33;10.32;;;9.20;;
81170;SDS011;70644;44.818;20.478;2023-09-30T04:38:00;9.23;;;8.13;;
81170;SDS011;70644;44.818;20.478;2023-09-30T04:40:26;10.65;;;9.13;;
81170;SDS011;70644;44.818;20.478;2023-09-30T04:42:53;9.73;;;8.73;;
81170;SDS011;70644;44.818;20.478;2023-09-30T04:45:25;10.40;;;8.38;;
81170;SDS011;70644;44.818;20.478;2023-09-30T04:47:54;10.20;;;9.07;;
81170;SDS011;70644;44.818;20.478;2023-09-30T04:50:23;9.93;;;7.70;;
81170;SDS011;70644;44.818;20.478;2023-09-30T04:52:50;10.10;;;8.90;;
81170;SDS011;70644;44.818;20.478;2023-09-30T04:55:16;9.90;;;8.50;;
81170;SDS011;70644;44.818;20.478;2023-09-30T04:57:46;11.25;;;8.00;;
81170;SDS011;70644;44.818;20.478;2023-09-30T05:00:13;8.40;;;7.57;;
81170;SDS011;70644;44.818;20.478;2023-09-30T05:02:41;9.77;;;7.82;;
81170;SDS011;70644;44.818;20.478;2023-09-30T05:05:09;9.32;;;8.13;;
81170;SDS011;70644;44.818;20.478;2023-09-30T05:07:35;8.63;;;7.80;;
81170;SDS011;70644;44.818;20.478;2023-09-30T05:10:02;10.23;;;7.78;;
81170;SDS011;70644;44.818;20.478;2023-09-30T05:12:35;11.18;;;8.32;;
81170;SDS011;70644;44.818;20.478;2023-09-30T05:15:01;10.05;;;8.15;;
81170;SDS011;70644;44.818;20.478;2023-09-30T05:17:28;9.75;;;8.85;;
81170;SDS011;70644;44.818;20.478;2023-09-30T05:19:56;10.02;;;8.73;;
81170;SDS011;70644;44.818;20.478;2023-09-30T05:22:22;10.20;;;8.73;;
81170;SDS011;70644;44.818;20.478;2023-09-30T05:24:52;10.30;;;9.30;;
81170;SDS011;70644;44.818;20.478;2023-09-30T05:27:19;9.48;;;8.45;;
81170;SDS011;70644;44.818;20.478;2023-09-30T05:29:45;10.60;;;7.53;;
81170;SDS011;70644;44.818;20.478;2023-09-30T05:32:11;9.82;;;8.57;;
81170;SDS011;70644;44.818;20.478;2023-09-30T05:34:39;9.93;;;8.50;;
81170;SDS011;70644;44.818;20.478;2023-09-30T05:37:05;9.43;;;8.52;;
81170;SDS011;70644;44.818;20.478;2023-09-30T05:39:31;10.30;;;7.97;;
81170;SDS011;70644;44.818;20.478;2023-09-30T05:41:57;8.48;;;7.57;;
81170;SDS011;70644;44.818;20.478;2023-09-30T05:44:23;9.55;;;8.45;;
81170;SDS011;70644;44.818;20.478;2023-09-30T05:46:52;9.30;;;8.40;;
81170;SDS011;70644;44.818;20.478;2023-09-30T05:49:18;8.20;;;7.30;;
81170;SDS011;70644;44.818;20.478;2023-09-30T05:51:45;9.45;;;8.45;;
81170;SDS011;70644;44.818;20.478;2023-09-30T05:54:12;9.68;;;8.63;;
81170;SDS011;70644;44.818;20.478;2023-09-30T05:56:38;9.90;;;8.73;;
81170;SDS011;70644;44.818;20.478;2023-09-30T05:59:06;8.73;;;7.82;;
81170;SDS011;70644;44.818;20.478;2023-09-30T06:01:32;9.50;;;8.43;;
81170;SDS011;70644;44.818;20.478;2023-09-30T06:03:59;8.68;;;7.88;;
81170;SDS011;70644;44.818;20.478;2023-09-30T06:06:25;8.52;;;7.63;;
81170;SDS011;70644;44.818;20.478;2023-09-30T06:08:53;9.10;;;7.63;;
81170;SDS011;70644;44.818;20.478;2023-09-30T06:11:22;9.05;;;7.50;;
81170;SDS011;70644;44.818;20.478;2023-09-30T06:13:56;10.18;;;8.45;;
81170;SDS011;70644;44.818;20.478;2023-09-30T06:16:26;8.73;;;7.82;;
81170;SDS011;70644;44.818;20.478;2023-09-30T06:18:53;10.43;;;7.50;;
81170;SDS011;70644;44.818;20.478;2023-09-30T06:21:20;9.00;;;8.10;;
81170;SDS011;70644;44.818;20.478;2023-09-30T06:23:47;9.05;;;8.15;;
81170;SDS011;70644;44.818;20.478;2023-09-30T06:26:13;9.10;;;7.43;;
81170;SDS011;70644;44.818;20.478;2023-09-30T06:28:42;9.43;;;8.07;;
81170;SDS011;70644;44.818;20.478;2023-09-30T06:31:09;9.73;;;8.35;;
81170;SDS011;70644;44.818;20.478;2023-09-30T06:33:35;7.95;;;7.15;;
81170;SDS011;70644;44.818;20.478;2023-09-30T06:36:07;8.07;;;6.78;;
81170;SDS011;70644;44.818;20.478;2023-09-30T06:38:33;9.60;;;8.27;;
81170;SDS011;70644;44.818;20.478;2023-09-30T06:40:59;9.10;;;8.20;;
81170;SDS011;70644;44.818;20.478;2023-09-30T06:43:26;9.60;;;8.63;;
81170;SDS011;70644;44.818;20.478;2023-09-30T06:45:53;9.45;;;7.78;;
81170;SDS011;70644;44.818;20.478;2023-09-30T06:48:19;8.98;;;7.88;;
81170;SDS011;70644;44.818;20.478;2023-09-30T06:50:46;8.93;;;7.55;;
81170;SDS011;70644;44.818;20.478;2023-09-30T06:53:13;9.40;;;6.90;;
81170;SDS011;70644;44.818;20.478;2023-09-30T06:55:41;8.38;;;6.72;;
81170;SDS011;70644;44.818;20.478;2023-09-30T06:58:08;9.55;;;7.32;;
81170;SDS011;70644;44.818;20.478;2023-09-30T07:00:35;8.05;;;6.80;;
81170;SDS011;70644;44.818;20.478;2023-09-30T07:03:01;9.88;;;8.02;;
81170;SDS011;70644;44.818;20.478;2023-09-30T07:05:28;8.43;;;7.55;;
81170;SDS011;70644;44.818;20.478;2023-09-30T07:07:55;8.82;;;7.82;;
81170;SDS011;70644;44.818;20.478;2023-09-30T07:10:21;8.82;;;7.68;;
81170;SDS011;70644;44.818;20.478;2023-09-30T07:12:47;10.20;;;8.18;;
81170;SDS011;70644;44.818;20.478;2023-09-30T07:15:13;8.82;;;7.93;;
81170;SDS011;70644;44.818;20.478;2023-09-30T07:17:39;8.23;;;7.05;;
81170;SDS011;70644;44.818;20.478;2023-09-30T07:20:06;8.68;;;7.78;;
81170;SDS011;70644;44.818;20.478;2023-09-30T07:22:33;8.73;;;7.93;;
81170;SDS011;70644;44.818;20.478;2023-09-30T07:25:00;8.60;;;7.80;;
81170;SDS011;70644;44.818;20.478;2023-09-30T07:27:27;8.63;;;7.72;;
81170;SDS011;70644;44.818;20.478;2023-09-30T07:29:53;9.25;;;7.35;;
81170;SDS011;70644;44.818;20.478;2023-09-30T07:32:19;8.10;;;7.30;;
81170;SDS011;70644;44.818;20.478;2023-09-30T07:34:48;7.57;;;6.47;;
81170;SDS011;70644;44.818;20.478;2023-09-30T07:37:14;9.23;;;8.32;;
81170;SDS011;70644;44.818;20.478;2023-09-30T07:39:42;9.48;;;8.25;;
81170;SDS011;70644;44.818;20.478;2023-09-30T07:42:11;9.63;;;8.73;;
81170;SDS011;70644;44.818;20.478;2023-09-30T07:44:38;10.45;;;7.72;;
81170;SDS011;70644;44.818;20.478;2023-09-30T07:47:04;8.15;;;7.35;;
81170;SDS011;70644;44.818;20.478;2023-09-30T07:49:37;8.57;;;7.68;;
81170;SDS011;70644;44.818;20.478;2023-09-30T07:52:03;8.73;;;7.78;;
81170;SDS011;70644;44.818;20.478;2023-09-30T07:54:29;9.18;;;7.40;;
81170;SDS011;70644;44.818;20.478;2023-09-30T07:56:55;7.50;;;6.43;;
81170;SDS011;70644;44.818;20.478;2023-09-30T07:59:22;9.70;;;7.00;;
81170;SDS011;70644;44.818;20.478;2023-09-30T08:01:49;8.70;;;7.80;;
81170;SDS011;70644;44.818;20.478;2023-09-30T08:04:15;8.80;;;6.80;;
81170;SDS011;70644;44.818;20.478;2023-09-30T08:06:41;8.65;;;7.60;;
81170;SDS011;70644;44.818;20.478;2023-09-30T08:09:07;10.43;;;7.75;;
81170;SDS011;70644;44.818;20.478;2023-09-30T08:11:36;9.68;;;7.97;;
81170;SDS011;70644;44.818;20.478;2023-09-30T08:14:05;9.20;;;7.57;;
81170;SDS011;70644;44.818;20.478;2023-09-30T08:16:34;9.02;;;7.03;;
81170;SDS011;70644;44.818;20.478;2023-09-30T08:19:00;8.82;;;7.63;;
81170;SDS011;70644;44.818;20.478;2023-09-30T08:21:26;8.27;;;7.28;;
81170;SDS011;70644;44.818;20.478;2023-09-30T08:23:52;8.85;;;7.57;;
81170;SDS011;70644;44.818;20.478;2023-09-30T08:26:20;8.25;;;7.45;;
81170;SDS011;70644;44.818;20.478;2023-09-30T08:28:46;9.30;;;7.05;;
81170;SDS011;70644;44.818;20.478;2023-09-30T08:31:12;9.07;;;6.78;;
81170;SDS011;70644;44.818;20.478;2023-09-30T08:33:39;8.25;;;7.30;;
81170;SDS011;70644;44.818;20.478;2023-09-30T08:36:08;10.23;;;7.63;;
81170;SDS011;70644;44.818;20.478;2023-09-30T08:38:36;9.38;;;7.53;;
81170;SDS011;70644;44.818;20.478;2023-09-30T08:41:03;8.73;;;7.93;;
81170;SDS011;70644;44.818;20.478;2023-09-30T08:43:29;10.63;;;7.47;;
81170;SDS011;70644;44.818;20.478;2023-09-30T08:45:59;8.50;;;7.60;;
81170;SDS011;70644;44.818;20.478;2023-09-30T08:48:26;9.18;;;8.10;;
81170;SDS011;70644;44.818;20.478;2023-09-30T08:50:53;9.25;;;7.55;;
81170;SDS011;70644;44.818;20.478;2023-09-30T08:53:19;8.15;;;7.30;;
81170;SDS011;70644;44.818;20.478;2023-09-30T08:55:46;8.13;;;7.32;;
81170;SDS011;70644;44.818;20.478;2023-09-30T08:58:13;7.68;;;6.68;;
81170;SDS011;70644;44.818;20.478;2023-09-30T09:00:40;8.52;;;7.35;;
81170;SDS011;70644;44.818;20.478;2023-09-30T09:03:07;8.43;;;7.60;;
81170;SDS011;70644;44.818;20.478;2023-09-30T09:05:33;8.20;;;7.40;;
81170;SDS011;70644;44.818;20.478;2023-09-30T09:07:59;8.18;;;6.57;;
81170;SDS011;70644;44.818;20.478;2023-09-30T09:10:26;8.35;;;7.47;;
81170;SDS011;70644;44.818;20.478;2023-09-30T09:12:55;8.32;;;7.47;;
81170;SDS011;70644;44.818;20.478;2023-09-30T09:15:28;8.10;;;7.07;;
81170;SDS011;70644;44.818;20.478;2023-09-30T09:17:54;9.65;;;7.65;;
81170;SDS011;70644;44.818;20.478;2023-09-30T09:20:21;7.53;;;6.82;;
81170;SDS011;70644;44.818;20.478;2023-09-30T09:22:49;8.43;;;7.55;;
81170;SDS011;70644;44.818;20.478;2023-09-30T09:25:23;7.78;;;6.97;;
81170;SDS011;70644;44.818;20.478;2023-09-30T09:27:50;8.85;;;7.45;;
81170;SDS011;70644;44.818;20.478;2023-09-30T09:30:23;7.60;;;6.80;;
81170;SDS011;70644;44.818;20.478;2023-09-30T09:32:53;7.80;;;7.00;;
81170;SDS011;70644;44.818;20.478;2023-09-30T09:35:22;9.80;;;7.82;;
81170;SDS011;70644;44.818;20.478;2023-09-30T09:40:23;7.68;;;6.07;;
81170;SDS011;70644;44.818;20.478;2023-09-30T09:42:49;8.68;;;7.40;;
81170;SDS011;70644;44.818;20.478;2023-09-30T09:45:18;8.23;;;6.35;;
81170;SDS011;70644;44.818;20.478;2023-09-30T09:47:45;7.97;;;6.75;;
81170;SDS011;70644;44.818;20.478;2023-09-30T09:50:12;8.73;;;7.82;;
81170;SDS011;70644;44.818;20.478;2023-09-30T09:52:39;7.90;;;6.55;;
81170;SDS011;70644;44.818;20.478;2023-09-30T09:55:08;7.20;;;6.50;;
81170;SDS011;70644;44.818;20.478;2023-09-30T09:57:35;8.02;;;7.20;;
81170;SDS011;70644;44.818;20.478;2023-09-30T10:00:03;10.52;;;7.22;;
81170;SDS011;70644;44.818;20.478;2023-09-30T10:02:33;7.75;;;6.50;;
81170;SDS011;70644;44.818;20.478;2023-09-30T10:05:00;8.35;;;7.13;;
81170;SDS011;70644;44.818;20.478;2023-09-30T10:07:29;8.82;;;7.28;;
81170;SDS011;70644;44.818;20.478;2023-09-30T10:09:56;8.82;;;7.53;;
81170;SDS011;70644;44.818;20.478;2023-09-30T10:12:24;8.55;;;7.75;;
81170;SDS011;70644;44.818;20.478;2023-09-30T10:14:51;8.27;;;7.35;;
81170;SDS011;70644;44.818;20.478;2023-09-30T10:17:18;9.65;;;7.55;;
81170;SDS011;70644;44.818;20.478;2023-09-30T10:22:28;9.65;;;7.40;;
81170;SDS011;70644;44.818;20.478;2023-09-30T10:24:55;8.23;;;7.35;;
81170;SDS011;70644;44.818;20.478;2023-09-30T10:35:14;10.23;;;7.45;;
81170;SDS011;70644;44.818;20.478;2023-09-30T10:37:42;7.75;;;6.95;;
81170;SDS011;70644;44.818;20.478;2023-09-30T10:40:08;8.35;;;7.43;;
81170;SDS011;70644;44.818;20.478;2023-09-30T10:42:49;8.40;;;7.15;;
81170;SDS011;70644;44.818;20.478;2023-09-30T10:48:46;8.15;;;7.35;;
81170;SDS011;70644;44.818;20.478;2023-09-30T10:50:54;8.77;;;7.18;;
81170;SDS011;70644;44.818;20.478;2023-09-30T10:53:21;7.00;;;6.25;;
81170;SDS011;70644;44.818;20.478;2023-09-30T10:55:54;7.78;;;6.97;;
81170;SDS011;70644;44.818;20.478;2023-09-30T10:58:20;8.50;;;6.82;;
81170;SDS011;70644;44.818;20.478;2023-09-30T11:00:53;8.15;;;7.35;;
81170;SDS011;70644;44.818;20.478;2023-09-30T11:03:20;8.13;;;6.85;;
81170;SDS011;70644;44.818;20.478;2023-09-30T11:05:50;8.23;;;7.43;;
81170;SDS011;70644;44.818;20.478;2023-09-30T11:08:21;8.50;;;7.22;;
81170;SDS011;70644;44.818;20.478;2023-09-30T11:10:51;7.55;;;6.50;;
81170;SDS011;70644;44.818;20.478;2023-09-30T11:13:18;8.70;;;6.97;;
81170;SDS011;70644;44.818;20.478;2023-09-30T11:15:45;8.20;;;7.40;;
81170;SDS011;70644;44.818;20.478;2023-09-30T11:20:41;8.38;;;6.93;;
81170;SDS011;70644;44.818;20.478;2023-09-30T11:23:08;8.20;;;7.40;;
81170;SDS011;70644;44.818;20.478;2023-09-30T11:25:35;7.72;;;6.93;;
81170;SDS011;70644;44.818;20.478;2023-09-30T11:28:16;8.27;;;7.47;;
81170;SDS011;70644;44.818;20.478;2023-09-30T11:30:55;7.03;;;6.25;;
81170;SDS011;70644;44.818;20.478;2023-09-30T11:33:24;8.23;;;7.28;;
81170;SDS011;70644;44.818;20.478;2023-09-30T11:35:57;7.20;;;6.30;;
81170;SDS011;70644;44.818;20.478;2023-09-30T11:38:24;9.20;;;6.97;;
81170;SDS011;70644;44.818;20.478;2023-09-30T11:41:03;8.50;;;7.00;;
81170;SDS011;70644;44.818;20.478;2023-09-30T11:43:31;7.72;;;6.93;;
81170;SDS011;70644;44.818;20.478;2023-09-30T11:46:10;7.13;;;6.35;;
81170;SDS011;70644;44.818;20.478;2023-09-30T11:48:39;7.57;;;6.88;;
81170;SDS011;70644;44.818;20.478;2023-09-30T11:51:06;8.13;;;6.25;;
81170;SDS011;70644;44.818;20.478;2023-09-30T11:53:32;7.70;;;7.00;;
81170;SDS011;70644;44.818;20.478;2023-09-30T11:56:01;7.65;;;6.85;;
81170;SDS011;70644;44.818;20.478;2023-09-30T11:58:32;6.97;;;6.38;;
81170;SDS011;70644;44.818;20.478;2023-09-30T12:00:59;9.05;;;7.43;;
81170;SDS011;70644;44.818;20.478;2023-09-30T12:03:25;7.88;;;7.07;;
81170;SDS011;70644;44.818;20.478;2023-09-30T12:05:53;7.72;;;6.88;;
81170;SDS011;70644;44.818;20.478;2023-09-30T12:08:21;7.10;;;6.43;;
81170;SDS011;70644;44.818;20.478;2023-09-30T12:10:47;7.28;;;6.55;;
81170;SDS011;70644;44.818;20.478;2023-09-30T12:13:15;8.00;;;7.22;;
81170;SDS011;70644;44.818;20.478;2023-09-30T12:15:41;7.45;;;6.75;;
81170;SDS011;70644;44.818;20.478;2023-09-30T12:18:08;7.25;;;6.55;;
81170;SDS011;70644;44.818;20.478;2023-09-30T12:20:35;8.05;;;7.25;;
81170;SDS011;70644;44.818;20.478;2023-09-30T12:23:01;7.63;;;6.60;;
81170;SDS011;70644;44.818;20.478;2023-09-30T12:25:30;7.85;;;7.07;;
81170;SDS011;70644;44.818;20.478;2023-09-30T12:28:00;8.30;;;7.50;;
81170;SDS011;70644;44.818;20.478;2023-09-30T12:30:26;7.80;;;7.00;;
81170;SDS011;70644;44.818;20.478;2023-09-30T12:32:52;7.68;;;6.90;;
81170;SDS011;70644;44.818;20.478;2023-09-30T12:35:20;8.73;;;7.72;;
81170;SDS011;70644;44.818;20.478;2023-09-30T12:37:47;8.60;;;6.70;;
81170;SDS011;70644;44.818;20.478;2023-09-30T12:40:13;10.45;;;7.30;;
81170;SDS011;70644;44.818;20.478;2023-09-30T12:42:42;7.38;;;6.68;;
81170;SDS011;70644;44.818;20.478;2023-09-30T12:45:08;7.15;;;6.43;;
81170;SDS011;70644;44.818;20.478;2023-09-30T12:47:34;9.05;;;6.22;;
81170;SDS011;70644;44.818;20.478;2023-09-30T12:50:00;8.43;;;7.00;;
81170;SDS011;70644;44.818;20.478;2023-09-30T12:52:26;7.28;;;6.40;;
81170;SDS011;70644;44.818;20.478;2023-09-30T12:54:53;7.93;;;7.10;;
81170;SDS011;70644;44.818;20.478;2023-09-30T12:57:19;8.43;;;6.97;;
81170;SDS011;70644;44.818;20.478;2023-09-30T12:59:45;8.20;;;7.38;;
81170;SDS011;70644;44.818;20.478;2023-09-30T13:02:14;8.80;;;7.28;;
81170;SDS011;70644;44.818;20.478;2023-09-30T13:04:40;7.70;;;7.00;;
81170;SDS011;70644;44.818;20.478;2023-09-30T13:07:11;8.15;;;6.75;;
81170;SDS011;70644;44.818;20.478;2023-09-30T13:09:38;7.28;;;6.28;;
81170;SDS011;70644;44.818;20.478;2023-09-30T13:12:04;9.88;;;8.50;;
81170;SDS011;70644;44.818;20.478;2023-09-30T13:14:30;8.18;;;7.32;;
81170;SDS011;70644;44.818;20.478;2023-09-30T13:16:56;9.57;;;7.85;;
81170;SDS011;70644;44.818;20.478;2023-09-30T13:19:22;13.90;;;9.90;;
81170;SDS011;70644;44.818;20.478;2023-09-30T13:21:49;14.13;;;10.18;;
81170;SDS011;70644;44.818;20.478;2023-09-30T13:24:16;28.83;;;16.05;;
81170;SDS011;70644;44.818;20.478;2023-09-30T13:26:42;22.73;;;13.93;;
81170;SDS011;70644;44.818;20.478;2023-09-30T13:29:08;17.27;;;11.98;;
81170;SDS011;70644;44.818;20.478;2023-09-30T13:31:38;24.45;;;13.45;;
81170;SDS011;70644;44.818;20.478;2023-09-30T13:34:05;25.58;;;14.15;;
81170;SDS011;70644;44.818;20.478;2023-09-30T13:36:31;29.17;;;17.02;;
81170;SDS011;70644;44.818;20.478;2023-09-30T13:38:58;57.83;;;26.75;;
81170;SDS011;70644;44.818;20.478;2023-09-30T13:41:24;57.05;;;26.35;;
81170;SDS011;70644;44.818;20.478;2023-09-30T13:43:50;50.83;;;23.08;;
81170;SDS011;70644;44.818;20.478;2023-09-30T13:46:16;44.67;;;24.20;;
81170;SDS011;70644;44.818;20.478;2023-09-30T13:48:42;42.45;;;22.48;;
81170;SDS011;70644;44.818;20.478;2023-09-30T13:51:08;50.70;;;25.50;;
81170;SDS011;70644;44.818;20.478;2023-09-30T13:53:36;35.95;;;19.75;;
81170;SDS011;70644;44.818;20.478;2023-09-30T13:56:02;33.35;;;20.15;;
81170;SDS011;70644;44.818;20.478;2023-09-30T13:58:29;38.95;;;21.30;;
81170;SDS011;70644;44.818;20.478;2023-09-30T14:00:56;32.88;;;20.15;;
81170;SDS011;70644;44.818;20.478;2023-09-30T14:03:22;37.65;;;22.60;;
81170;SDS011;70644;44.818;20.478;2023-09-30T14:05:51;28.58;;;18.08;;
81170;SDS011;70644;44.818;20.478;2023-09-30T14:08:21;29.25;;;16.17;;
81170;SDS011;70644;44.818;20.478;2023-09-30T14:10:49;24.38;;;18.10;;
81170;SDS011;70644;44.818;20.478;2023-09-30T14:13:16;22.38;;;15.98;;
81170;SDS011;70644;44.818;20.478;2023-09-30T14:15:42;21.42;;;16.20;;
81170;SDS011;70644;44.818;20.478;2023-09-30T14:18:08;19.15;;;14.57;;
81170;SDS011;70644;44.818;20.478;2023-09-30T14:20:34;23.63;;;15.95;;
81170;SDS011;70644;44.818;20.478;2023-09-30T14:23:01;18.65;;;13.45;;
81170;SDS011;70644;44.818;20.478;2023-09-30T14:25:27;19.27;;;12.77;;
81170;SDS011;70644;44.818;20.478;2023-09-30T14:27:53;20.08;;;13.32;;
81170;SDS011;70644;44.818;20.478;2023-09-30T14:30:19;19.98;;;15.63;;
81170;SDS011;70644;44.818;20.478;2023-09-30T14:32:46;16.90;;;11.90;;
81170;SDS011;70644;44.818;20.478;2023-09-30T14:35:12;18.00;;;15.63;;
81170;SDS011;70644;44.818;20.478;2023-09-30T14:37:38;20.00;;;13.07;;
81170;SDS011;70644;44.818;20.478;2023-09-30T14:40:06;22.10;;;14.65;;
81170;SDS011;70644;44.818;20.478;2023-09-30T14:42:36;30.27;;;19.10;;
81170;SDS011;70644;44.818;20.478;2023-09-30T14:45:03;19.23;;;14.73;;